Updated03/08/2021 3:54am 
 

Nearby Airport METAR Reports

 

KVSF - Springfield, Vermont, USA
Distance from station: WSW 8mi, 12km
Updated: 08/03/2021 3:04am
Fog, Overcast
Fog, Overcast
 Wind from calm
Wind: Calm
Temperature: 52°F , 11°C
Dew Point: 52°F , 11°C
Humidity: 100%
Barometer: 30.11 inHg , 1019.6 hPa
Summary: Fog
Clouds: Overcast
Visibility: 1/4 mile , 0.4 km
Cloud details: Overcast 200 ft
2021/08/03 07:04 KVSF 030704Z AUTO 00000KT 1/4SM FG VV002 11/11 A3011 RMK AO2 T01110111
KLEB - Lebanon, New Hampshire, USA
Distance from station: N 18mi, 29km
Updated: 08/03/2021 2:53am

 
Barometer: 30.10 inHg , 1019.3 hPa
2021/08/03 06:53 KLEB 030653Z AUTO A3010 RMK AO2 SLPNO PWINO
KRUT - Rutland State, Vermont, USA
Distance from station: WNW 31mi, 50km
Updated: 08/03/2021 2:56am
Clear
Clear
 Wind from SE
Wind: SE 7 mph , 11 km/h
Temperature: 52°F , 11°C
Dew Point: 52°F , 11°C
Humidity: 100%
Barometer: 30.11 inHg , 1019.6 hPa
Clouds: Clear
Visibility: 10 miles , 16 km
2021/08/03 06:56 KRUT 030656Z AUTO 14006KT 10SM CLR 11/11 A3011 RMK AO2 SLP192 T01110111 $
 
KEEN - Keene/Dillant, New Hampshire, USA
Distance from station: S 34mi, 55km
Updated: 08/03/2021 3:31am
Fog, Overcast
Fog, Overcast
 Wind from calm
Wind: Calm
Temperature: 54°F , 12°C
Dew Point: 54°F , 12°C
Humidity: 100%
Barometer: 30.11 inHg , 1019.6 hPa
Summary: Fog
Clouds: Overcast
Visibility: 1/2 mile , 0.8 km
Cloud details: Overcast 100 ft
2021/08/03 07:31 KEEN 030731Z AUTO 00000KT 1/2SM FG OVC001 12/12 A3011 RMK AO2 $
K1P1 - Plymouth, New Hampshire, USA
Distance from station: NE 42mi, 67km
Updated: 08/03/2021 3:35am
Fog, Mostly cloudy
Fog, Mostly cloudy
 Wind from calm
Wind: Calm
Temperature: 48°F , 9°C
Dew Point: 46°F , 8°C
Humidity: 94%
Barometer: 30.09 inHg , 1019 hPa
Summary: Fog
Clouds: Mostly cloudy
Visibility: 1/2 mile , 0.8 km
Cloud details: Mostly cloudy 300 ft
2021/08/03 07:35 K1P1 030735Z AUTO 00000KT 1/2SM FG BKN003 09/08 A3009 RMK AO2 T00880084
KAFN - Jaffrey, New Hampshire, USA
Distance from station: SSE 44mi, 70km
Updated: 08/03/2021 3:52am
Clear
Clear
 Wind from S
Wind: S 3 mph , 6 km/h
Temperature: 52°F , 11°C
Barometer: 30.12 inHg , 1020 hPa
Clouds: Clear
Visibility: 10 miles , 16 km
2021/08/03 07:52 KAFN 030752Z AUTO 17003KT 10SM CLR 11/ A3012 RMK AO2 SLP202 T0111 $
 
KCON - Concord, New Hampshire, USA
Distance from station: ESE 45mi, 73km
Updated: 08/03/2021 3:51am
Clear
Clear
 Wind from calm
Wind: Calm
Temperature: 52°F , 11°C
Dew Point: 48°F , 9°C
Humidity: 88%
Barometer: 30.09 inHg , 1019 hPa
Clouds: Clear
Visibility: 10 miles , 16 km
2021/08/03 07:51 KCON 030751Z AUTO 00000KT 10SM CLR 11/09 A3009 RMK AO2 SLP190 T01060094
KLCI - Laconia Muni, New Hampshire, USA
Distance from station: ENE 49mi, 80km
Updated: 08/03/2021 2:56am
Clear
Clear
 Wind from SW
Wind: SW 5 mph , 7 km/h
Temperature: 54°F , 12°C
Dew Point: 54°F , 12°C
Humidity: 100%
Barometer: 30.09 inHg , 1019 hPa
Clouds: Clear
Visibility: 10 miles , 16 km
2021/08/03 06:56 KLCI 030656Z AUTO 23004KT 10SM CLR 12/12 A3009 RMK AO2 SLP188 T01220117
KDDH - Bennington, Vermont, USA
Distance from station: SW 55mi, 89km
Updated: 08/03/2021 2:54am
Clear
Clear
 Wind from calm
Wind: Calm
Temperature: 50°F , 10°C
Dew Point: 48°F , 9°C
Humidity: 94%
Barometer: 30.12 inHg , 1020 hPa
Clouds: Clear
Visibility: 10 miles , 16 km
2021/08/03 06:54 KDDH 030654Z AUTO 00000KT 10SM CLR 10/09 A3012 RMK AO2 SLP197 T01000094
 
K6B0 - Middlebury, Vermont, USA
Distance from station: NW 56mi, 90km
Updated: 08/03/2021 3:35am
Clear
Clear
 Wind from calm
Wind: Calm
Temperature: 52°F , 11°C
Dew Point: 50°F , 10°C
Humidity: 94%
Barometer: 30.09 inHg , 1019 hPa
Clouds: Clear
Visibility: 10 miles , 16 km
2021/08/03 07:35 K6B0 030735Z AUTO 00000KT 10SM CLR 11/10 A3009 RMK AO2 T01140100
KMHT - Manchester, New Hampshire, USA
Distance from station: ESE 56mi, 90km
Updated: 08/03/2021 2:53am
Clear
Clear
 Wind from calm
Wind: Calm
Temperature: 61°F , 16°C
Dew Point: 55°F , 13°C
Humidity: 83%
Barometer: 30.07 inHg , 1018.3 hPa
Clouds: Clear
Visibility: 10 miles , 16 km
2021/08/03 06:53 KMHT 030653Z 00000KT 10SM CLR 16/13 A3007 RMK AO2 SLP193 T01560128
KORE - Orange, Massachusetts, USA
Distance from station: S 56mi, 90km
Updated: 08/03/2021 3:52am
Fog, Overcast
Fog, Overcast
 Wind from calm
Wind: Calm
Temperature: 54°F , 12°C
Dew Point: 52°F , 11°C
Humidity: 94%
Barometer: 30.12 inHg , 1020 hPa
Summary: Fog
Clouds: Overcast
Visibility: 1/4 mile , 0.4 km
Cloud details: Overcast 100 ft
2021/08/03 07:52 KORE 030752Z AUTO 00000KT 1/4SM FG VV001 12/11 A3012 RMK AO2 SLP197 T01170111
 
KMPV - Montpelier/Barre, Vermont, USA
Distance from station: N 58mi, 93km
Updated: 08/03/2021 3:51am
Mostly cloudy
Mostly cloudy
 Wind from calm
Wind: Calm
Temperature: 48°F , 9°C
Dew Point: 46°F , 8°C
Humidity: 94%
Barometer: 30.12 inHg , 1020 hPa
Clouds: Mostly cloudy
Visibility: 10 miles , 16 km
Cloud details: Mostly cloudy 100 ft
2021/08/03 07:51 KMPV 030751Z AUTO 00000KT 10SM BKN001 09/08 A3012 RMK AO2 SLP201 T00940078
KASH - Nashua/Boire Fld, New Hampshire, USA
Distance from station: SE 59mi, 95km
Updated: 08/03/2021 2:56am
Clear
Clear
 Wind from WNW
Wind: WNW 3 mph , 6 km/h
Temperature: 57°F , 14°C
Dew Point: 57°F , 14°C
Humidity: 100%
Barometer: 30.09 inHg , 1019 hPa
Clouds: Clear
Visibility: 10 miles , 16 km
2021/08/03 06:56 KASH 030656Z AUTO 30003KT 10SM CLR 14/14 A3009 RMK AO2 SLP194 T01390139
KAQW - North Adams, Massachusetts, USA
Distance from station: SW 62mi, 99km
Updated: 08/03/2021 3:52am
Clear
Clear
 Wind from calm
Wind: Calm
Temperature: 52°F , 11°C
Dew Point: 48°F , 9°C
Humidity: 88%
Barometer: 30.13 inHg , 1020.3 hPa
Clouds: Clear
Visibility: 10 miles , 16 km
2021/08/03 07:52 KAQW 030752Z AUTO 00000KT 10SM CLR 11/09 A3013 RMK AO2 SLP203 T01060089
 
KGFL - Glens Falls, New York, USA
Distance from station: W 63mi, 101km
Updated: 08/03/2021 3:03am
Mist, Clear
Mist, Clear
 Wind from calm
Wind: Calm
Temperature: 48°F , 9°C
Dew Point: 48°F , 9°C
Humidity: 100%
Barometer: 30.10 inHg , 1019.3 hPa
Summary: Mist
Clouds: Clear
Visibility: 3 miles , 5 km
2021/08/03 07:03 KGFL 030703Z AUTO 00000KT 3SM BR CLR 09/09 A3010 RMK AO2 T00940089
KFIT - Fitchburg, Massachusetts, USA
Distance from station: SSE 65mi, 105km
Updated: 08/03/2021 3:52am
Clear
Clear
 Wind from N
Wind: N 5 mph , 7 km/h
Temperature: 55°F , 13°C
Dew Point: 52°F , 11°C
Humidity: 88%
Barometer: 30.10 inHg , 1019.3 hPa
Clouds: Clear
Visibility: 10 miles , 16 km
2021/08/03 07:52 KFIT 030752Z AUTO 35004KT 10SM CLR 13/11 A3010 RMK AO2 SLP193 T01280111
KDAW - Rochester, New Hampshire, USA
Distance from station: E 73mi, 118km
Updated: 08/03/2021 3:51am
Clear
Clear
 Wind from NW
Wind: NW 5 mph , 7 km/h
Temperature: 54°F , 12°C
Dew Point: 52°F , 11°C
Humidity: 94%
Barometer: 30.08 inHg , 1018.6 hPa
Clouds: Clear
Visibility: 10 miles , 16 km
2021/08/03 07:51 KDAW 030751Z AUTO 31004KT 10SM CLR 12/11 A3008 RMK AO2 SLP182 T01220106
 
K1V4 - St. Johnsbury, Vermont, USA
Distance from station: NNE 74mi, 119km
Updated: 08/03/2021 2:54am

 
Temperature: 50°F , 10°C
Dew Point: 50°F , 10°C
Humidity: 100%
Barometer: 30.07 inHg , 1018.3 hPa
2021/08/03 06:54 K1V4 030654Z AUTO 10/10 A3007 RMK AO1 SLP177 T01000100
KLWM - Lawrence, Massachusetts, USA
Distance from station: SE 77mi, 124km
Updated: 08/03/2021 2:54am
Clear
Clear
 Wind from SSW
Wind: SSW 3 mph , 6 km/h
Temperature: 61°F , 16°C
Dew Point: 57°F , 14°C
Humidity: 88%
Barometer: 30.10 inHg , 1019.3 hPa
Clouds: Clear
Visibility: 10 miles , 16 km
2021/08/03 06:54 KLWM 030654Z AUTO 20003KT 10SM CLR 16/14 A3010 RMK AO2 SLP192 T01560144



Flag Counter
free counter page views since 4/29/2009